sensor_id;sensor_type;location;lat;lon;timestamp;temperature;humidity
8957;DHT22;4513;50.054;8.230;2022-09-27T00:00:08;11.50;99.90
8957;DHT22;4513;50.054;8.230;2022-09-27T00:02:37;11.50;99.90
8957;DHT22;4513;50.054;8.230;2022-09-27T00:05:04;11.50;99.90
8957;DHT22;4513;50.054;8.230;2022-09-27T00:07:31;11.50;99.90
8957;DHT22;4513;50.054;8.230;2022-09-27T00:09:58;11.60;99.90
8957;DHT22;4513;50.054;8.230;2022-09-27T00:12:25;11.60;99.90
8957;DHT22;4513;50.054;8.230;2022-09-27T00:14:52;11.50;99.90
8957;DHT22;4513;50.054;8.230;2022-09-27T00:17:19;11.60;99.90
8957;DHT22;4513;50.054;8.230;2022-09-27T00:19:47;11.60;99.90
8957;DHT22;4513;50.054;8.230;2022-09-27T00:22:14;11.60;99.90
8957;DHT22;4513;50.054;8.230;2022-09-27T00:24:43;11.60;99.90
8957;DHT22;4513;50.054;8.230;2022-09-27T00:27:13;11.60;99.90
8957;DHT22;4513;50.054;8.230;2022-09-27T00:29:40;11.50;99.90
8957;DHT22;4513;50.054;8.230;2022-09-27T00:32:07;11.50;99.90
8957;DHT22;4513;50.054;8.230;2022-09-27T00:34:34;11.40;99.90
8957;DHT22;4513;50.054;8.230;2022-09-27T00:37:03;11.40;99.90
8957;DHT22;4513;50.054;8.230;2022-09-27T00:39:30;11.40;99.90
8957;DHT22;4513;50.054;8.230;2022-09-27T00:41:57;11.40;99.90
8957;DHT22;4513;50.054;8.230;2022-09-27T00:44:48;11.40;99.90
8957;DHT22;4513;50.054;8.230;2022-09-27T00:47:23;11.40;99.90
8957;DHT22;4513;50.054;8.230;2022-09-27T00:49:54;11.40;99.90
8957;DHT22;4513;50.054;8.230;2022-09-27T00:52:27;11.40;99.90
8957;DHT22;4513;50.054;8.230;2022-09-27T00:54:57;11.40;99.90
8957;DHT22;4513;50.054;8.230;2022-09-27T00:57:27;11.40;99.90
8957;DHT22;4513;50.054;8.230;2022-09-27T00:59:58;11.50;99.90
8957;DHT22;4513;50.054;8.230;2022-09-27T01:02:26;11.50;99.90
8957;DHT22;4513;50.054;8.230;2022-09-27T01:04:54;11.50;99.90
8957;DHT22;4513;50.054;8.230;2022-09-27T01:07:23;11.40;99.90
8957;DHT22;4513;50.054;8.230;2022-09-27T01:09:50;11.40;99.90
8957;DHT22;4513;50.054;8.230;2022-09-27T01:12:24;11.40;99.90
8957;DHT22;4513;50.054;8.230;2022-09-27T01:15:05;11.50;99.90
8957;DHT22;4513;50.054;8.230;2022-09-27T01:17:47;11.40;99.90
8957;DHT22;4513;50.054;8.230;2022-09-27T01:20:42;11.40;99.90
8957;DHT22;4513;50.054;8.230;2022-09-27T01:23:34;11.40;99.90
8957;DHT22;4513;50.054;8.230;2022-09-27T01:26:11;11.40;99.90
8957;DHT22;4513;50.054;8.230;2022-09-27T01:28:50;11.40;99.90
8957;DHT22;4513;50.054;8.230;2022-09-27T01:31:27;11.40;99.90
8957;DHT22;4513;50.054;8.230;2022-09-27T01:34:02;11.40;99.90
8957;DHT22;4513;50.054;8.230;2022-09-27T01:36:39;11.40;99.90
8957;DHT22;4513;50.054;8.230;2022-09-27T01:39:20;11.40;99.90
8957;DHT22;4513;50.054;8.230;2022-09-27T01:41:54;11.40;99.90
8957;DHT22;4513;50.054;8.230;2022-09-27T01:44:26;11.50;99.90
8957;DHT22;4513;50.054;8.230;2022-09-27T01:46:58;11.50;99.90
8957;DHT22;4513;50.054;8.230;2022-09-27T01:49:32;11.50;99.90
8957;DHT22;4513;50.054;8.230;2022-09-27T01:52:01;11.40;99.90
8957;DHT22;4513;50.054;8.230;2022-09-27T01:54:36;11.40;99.90
8957;DHT22;4513;50.054;8.230;2022-09-27T01:57:07;11.40;99.90
8957;DHT22;4513;50.054;8.230;2022-09-27T01:59:39;11.40;99.90
8957;DHT22;4513;50.054;8.230;2022-09-27T02:02:10;11.40;99.90
8957;DHT22;4513;50.054;8.230;2022-09-27T02:04:39;11.40;99.90
8957;DHT22;4513;50.054;8.230;2022-09-27T02:07:11;11.30;99.90
8957;DHT22;4513;50.054;8.230;2022-09-27T02:09:43;11.30;99.90
8957;DHT22;4513;50.054;8.230;2022-09-27T02:12:15;11.20;99.90
8957;DHT22;4513;50.054;8.230;2022-09-27T02:14:46;11.20;99.90
8957;DHT22;4513;50.054;8.230;2022-09-27T02:17:22;11.10;99.90
8957;DHT22;4513;50.054;8.230;2022-09-27T02:19:55;11.20;99.90
8957;DHT22;4513;50.054;8.230;2022-09-27T02:22:31;11.10;99.90
8957;DHT22;4513;50.054;8.230;2022-09-27T02:25:06;11.10;99.90
8957;DHT22;4513;50.054;8.230;2022-09-27T02:27:41;11.10;99.90
8957;DHT22;4513;50.054;8.230;2022-09-27T02:30:13;11.10;99.90
8957;DHT22;4513;50.054;8.230;2022-09-27T02:32:42;11.10;99.90
8957;DHT22;4513;50.054;8.230;2022-09-27T02:35:12;11.10;99.90
8957;DHT22;4513;50.054;8.230;2022-09-27T02:37:41;11.10;99.90
8957;DHT22;4513;50.054;8.230;2022-09-27T02:40:08;11.00;99.90
8957;DHT22;4513;50.054;8.230;2022-09-27T02:42:36;11.10;99.90
8957;DHT22;4513;50.054;8.230;2022-09-27T02:45:05;11.10;99.90
8957;DHT22;4513;50.054;8.230;2022-09-27T02:47:56;11.10;99.90
8957;DHT22;4513;50.054;8.230;2022-09-27T02:50:43;11.00;99.90
8957;DHT22;4513;50.054;8.230;2022-09-27T02:53:24;11.00;99.90
8957;DHT22;4513;50.054;8.230;2022-09-27T02:56:00;11.00;99.90
8957;DHT22;4513;50.054;8.230;2022-09-27T02:58:38;10.80;99.90
8957;DHT22;4513;50.054;8.230;2022-09-27T03:01:13;10.70;99.90
8957;DHT22;4513;50.054;8.230;2022-09-27T03:03:50;10.80;99.90
8957;DHT22;4513;50.054;8.230;2022-09-27T03:06:19;10.70;99.90
8957;DHT22;4513;50.054;8.230;2022-09-27T03:08:47;10.70;99.90
8957;DHT22;4513;50.054;8.230;2022-09-27T03:11:14;10.70;99.90
8957;DHT22;4513;50.054;8.230;2022-09-27T03:13:41;10.70;99.90
8957;DHT22;4513;50.054;8.230;2022-09-27T03:16:09;10.60;99.90
8957;DHT22;4513;50.054;8.230;2022-09-27T03:18:36;10.60;99.90
8957;DHT22;4513;50.054;8.230;2022-09-27T03:21:04;10.60;99.90
8957;DHT22;4513;50.054;8.230;2022-09-27T03:23:31;10.50;99.90
8957;DHT22;4513;50.054;8.230;2022-09-27T03:25:58;10.50;99.90
8957;DHT22;4513;50.054;8.230;2022-09-27T03:28:25;10.50;99.90
8957;DHT22;4513;50.054;8.230;2022-09-27T03:30:54;10.50;99.90
8957;DHT22;4513;50.054;8.230;2022-09-27T03:33:21;10.60;99.90
8957;DHT22;4513;50.054;8.230;2022-09-27T03:35:48;10.50;99.90
8957;DHT22;4513;50.054;8.230;2022-09-27T03:38:16;10.50;99.90
8957;DHT22;4513;50.054;8.230;2022-09-27T03:40:43;10.50;99.90
8957;DHT22;4513;50.054;8.230;2022-09-27T03:43:10;10.50;99.90
8957;DHT22;4513;50.054;8.230;2022-09-27T03:45:37;10.50;99.90
8957;DHT22;4513;50.054;8.230;2022-09-27T03:48:03;10.50;99.90
8957;DHT22;4513;50.054;8.230;2022-09-27T03:50:30;10.50;99.90
8957;DHT22;4513;50.054;8.230;2022-09-27T03:52:57;10.50;99.90
8957;DHT22;4513;50.054;8.230;2022-09-27T03:55:26;10.50;99.90
8957;DHT22;4513;50.054;8.230;2022-09-27T03:57:53;10.50;99.90
8957;DHT22;4513;50.054;8.230;2022-09-27T04:00:20;10.50;99.90
8957;DHT22;4513;50.054;8.230;2022-09-27T04:02:47;10.60;99.90
8957;DHT22;4513;50.054;8.230;2022-09-27T04:05:14;10.50;99.90
8957;DHT22;4513;50.054;8.230;2022-09-27T04:07:45;10.50;99.90
8957;DHT22;4513;50.054;8.230;2022-09-27T04:10:14;10.50;99.90
8957;DHT22;4513;50.054;8.230;2022-09-27T04:12:43;10.50;99.90
8957;DHT22;4513;50.054;8.230;2022-09-27T04:15:10;10.40;99.90
8957;DHT22;4513;50.054;8.230;2022-09-27T04:17:40;10.40;99.90
8957;DHT22;4513;50.054;8.230;2022-09-27T04:20:07;10.30;99.90
8957;DHT22;4513;50.054;8.230;2022-09-27T04:22:34;10.20;99.90
8957;DHT22;4513;50.054;8.230;2022-09-27T04:25:01;10.30;99.90
8957;DHT22;4513;50.054;8.230;2022-09-27T04:27:27;10.20;99.90
8957;DHT22;4513;50.054;8.230;2022-09-27T04:29:56;10.30;99.90
8957;DHT22;4513;50.054;8.230;2022-09-27T04:32:22;10.30;99.90
8957;DHT22;4513;50.054;8.230;2022-09-27T04:34:49;10.40;99.90
8957;DHT22;4513;50.054;8.230;2022-09-27T04:37:34;10.30;99.90
8957;DHT22;4513;50.054;8.230;2022-09-27T04:40:01;10.20;99.90
8957;DHT22;4513;50.054;8.230;2022-09-27T04:42:28;10.30;99.90
8957;DHT22;4513;50.054;8.230;2022-09-27T04:44:57;10.20;99.90
8957;DHT22;4513;50.054;8.230;2022-09-27T04:47:24;10.30;99.90
8957;DHT22;4513;50.054;8.230;2022-09-27T04:49:51;10.20;99.90
8957;DHT22;4513;50.054;8.230;2022-09-27T04:52:17;10.30;99.90
8957;DHT22;4513;50.054;8.230;2022-09-27T04:54:44;10.30;99.90
8957;DHT22;4513;50.054;8.230;2022-09-27T04:57:11;10.20;99.90
8957;DHT22;4513;50.054;8.230;2022-09-27T04:59:39;10.20;99.90
8957;DHT22;4513;50.054;8.230;2022-09-27T05:02:08;10.20;99.90
8957;DHT22;4513;50.054;8.230;2022-09-27T05:04:35;10.10;99.90
8957;DHT22;4513;50.054;8.230;2022-09-27T05:07:02;10.20;99.90
8957;DHT22;4513;50.054;8.230;2022-09-27T05:09:29;10.20;99.90
8957;DHT22;4513;50.054;8.230;2022-09-27T05:11:58;10.20;99.90
8957;DHT22;4513;50.054;8.230;2022-09-27T05:14:25;10.20;99.90
8957;DHT22;4513;50.054;8.230;2022-09-27T05:16:52;10.10;99.90
8957;DHT22;4513;50.054;8.230;2022-09-27T05:19:21;10.10;99.90
8957;DHT22;4513;50.054;8.230;2022-09-27T05:21:48;10.20;99.90
8957;DHT22;4513;50.054;8.230;2022-09-27T05:24:15;10.20;99.90
8957;DHT22;4513;50.054;8.230;2022-09-27T05:26:42;10.20;99.90
8957;DHT22;4513;50.054;8.230;2022-09-27T05:29:10;10.30;99.90
8957;DHT22;4513;50.054;8.230;2022-09-27T05:31:37;10.20;99.90
8957;DHT22;4513;50.054;8.230;2022-09-27T05:34:03;10.20;99.90
8957;DHT22;4513;50.054;8.230;2022-09-27T05:36:38;10.30;99.90
8957;DHT22;4513;50.054;8.230;2022-09-27T05:39:05;10.40;99.90
8957;DHT22;4513;50.054;8.230;2022-09-27T05:41:32;10.40;99.90
8957;DHT22;4513;50.054;8.230;2022-09-27T05:43:59;10.40;99.90
8957;DHT22;4513;50.054;8.230;2022-09-27T05:46:26;10.40;99.90
8957;DHT22;4513;50.054;8.230;2022-09-27T05:48:53;10.40;99.90
8957;DHT22;4513;50.054;8.230;2022-09-27T05:51:20;10.40;99.90
8957;DHT22;4513;50.054;8.230;2022-09-27T05:53:48;10.50;99.90
8957;DHT22;4513;50.054;8.230;2022-09-27T05:56:15;10.50;99.90
8957;DHT22;4513;50.054;8.230;2022-09-27T05:58:42;10.60;99.90
8957;DHT22;4513;50.054;8.230;2022-09-27T06:01:12;10.50;99.90
8957;DHT22;4513;50.054;8.230;2022-09-27T06:03:39;10.50;99.90
8957;DHT22;4513;50.054;8.230;2022-09-27T06:06:06;10.60;99.90
8957;DHT22;4513;50.054;8.230;2022-09-27T06:08:36;10.60;99.90
8957;DHT22;4513;50.054;8.230;2022-09-27T06:11:07;10.70;99.90
8957;DHT22;4513;50.054;8.230;2022-09-27T06:13:34;10.70;99.90
8957;DHT22;4513;50.054;8.230;2022-09-27T06:16:05;10.70;99.90
8957;DHT22;4513;50.054;8.230;2022-09-27T06:18:32;10.70;99.90
8957;DHT22;4513;50.054;8.230;2022-09-27T06:21:00;10.60;99.90
8957;DHT22;4513;50.054;8.230;2022-09-27T06:23:27;10.80;99.90
8957;DHT22;4513;50.054;8.230;2022-09-27T06:26:00;10.80;99.90
8957;DHT22;4513;50.054;8.230;2022-09-27T06:28:29;10.80;99.90
8957;DHT22;4513;50.054;8.230;2022-09-27T06:30:57;10.80;99.90
8957;DHT22;4513;50.054;8.230;2022-09-27T06:33:25;10.80;99.90
8957;DHT22;4513;50.054;8.230;2022-09-27T06:35:53;10.90;99.90
8957;DHT22;4513;50.054;8.230;2022-09-27T06:38:21;10.90;99.90
8957;DHT22;4513;50.054;8.230;2022-09-27T06:40:49;10.80;99.90
8957;DHT22;4513;50.054;8.230;2022-09-27T06:43:18;10.80;99.90
8957;DHT22;4513;50.054;8.230;2022-09-27T06:45:46;10.80;99.90
8957;DHT22;4513;50.054;8.230;2022-09-27T06:48:15;10.80;99.90
8957;DHT22;4513;50.054;8.230;2022-09-27T06:50:44;10.80;99.90
8957;DHT22;4513;50.054;8.230;2022-09-27T06:53:14;10.80;99.90
8957;DHT22;4513;50.054;8.230;2022-09-27T06:55:41;10.80;99.90
8957;DHT22;4513;50.054;8.230;2022-09-27T06:58:10;10.80;99.90
8957;DHT22;4513;50.054;8.230;2022-09-27T07:00:55;10.70;99.90
8957;DHT22;4513;50.054;8.230;2022-09-27T07:03:23;10.80;99.90
8957;DHT22;4513;50.054;8.230;2022-09-27T07:05:57;10.80;99.90
8957;DHT22;4513;50.054;8.230;2022-09-27T07:08:25;10.80;99.90
8957;DHT22;4513;50.054;8.230;2022-09-27T07:10:53;10.80;99.90
8957;DHT22;4513;50.054;8.230;2022-09-27T07:13:21;10.80;99.90
8957;DHT22;4513;50.054;8.230;2022-09-27T07:15:47;10.90;99.90
8957;DHT22;4513;50.054;8.230;2022-09-27T07:18:16;10.80;99.90
8957;DHT22;4513;50.054;8.230;2022-09-27T07:20:43;10.90;99.90
8957;DHT22;4513;50.054;8.230;2022-09-27T07:23:10;10.90;99.90
8957;DHT22;4513;50.054;8.230;2022-09-27T07:25:37;11.00;99.90
8957;DHT22;4513;50.054;8.230;2022-09-27T07:28:06;11.10;99.90
8957;DHT22;4513;50.054;8.230;2022-09-27T07:30:35;11.10;99.90
8957;DHT22;4513;50.054;8.230;2022-09-27T07:33:04;11.20;99.90
8957;DHT22;4513;50.054;8.230;2022-09-27T07:35:32;11.30;99.90
8957;DHT22;4513;50.054;8.230;2022-09-27T07:38:00;11.50;99.90
8957;DHT22;4513;50.054;8.230;2022-09-27T07:40:28;11.50;99.90
8957;DHT22;4513;50.054;8.230;2022-09-27T07:42:55;11.60;99.90
8957;DHT22;4513;50.054;8.230;2022-09-27T07:45:23;11.70;99.90
8957;DHT22;4513;50.054;8.230;2022-09-27T07:47:50;11.70;99.90
8957;DHT22;4513;50.054;8.230;2022-09-27T07:50:17;11.60;99.90
8957;DHT22;4513;50.054;8.230;2022-09-27T07:52:47;11.60;99.90
8957;DHT22;4513;50.054;8.230;2022-09-27T07:55:16;11.70;99.90
8957;DHT22;4513;50.054;8.230;2022-09-27T07:57:44;11.80;99.90
8957;DHT22;4513;50.054;8.230;2022-09-27T08:00:13;11.90;99.90
8957;DHT22;4513;50.054;8.230;2022-09-27T08:02:40;12.20;99.90
8957;DHT22;4513;50.054;8.230;2022-09-27T08:05:08;12.50;99.90
8957;DHT22;4513;50.054;8.230;2022-09-27T08:07:35;13.00;99.90
8957;DHT22;4513;50.054;8.230;2022-09-27T08:10:06;13.40;99.90
8957;DHT22;4513;50.054;8.230;2022-09-27T08:12:33;13.50;99.90
8957;DHT22;4513;50.054;8.230;2022-09-27T08:15:00;13.50;99.90
8957;DHT22;4513;50.054;8.230;2022-09-27T08:17:27;13.70;99.90
8957;DHT22;4513;50.054;8.230;2022-09-27T08:19:54;14.00;99.90
8957;DHT22;4513;50.054;8.230;2022-09-27T08:22:21;14.30;99.90
8957;DHT22;4513;50.054;8.230;2022-09-27T08:24:48;15.00;99.90
8957;DHT22;4513;50.054;8.230;2022-09-27T08:27:17;15.70;99.90
8957;DHT22;4513;50.054;8.230;2022-09-27T08:29:43;16.30;99.90
8957;DHT22;4513;50.054;8.230;2022-09-27T08:32:12;16.00;99.90
8957;DHT22;4513;50.054;8.230;2022-09-27T08:34:39;16.50;99.90
8957;DHT22;4513;50.054;8.230;2022-09-27T08:37:06;16.40;99.90
8957;DHT22;4513;50.054;8.230;2022-09-27T08:39:33;16.80;99.90
8957;DHT22;4513;50.054;8.230;2022-09-27T08:42:12;17.10;99.90
8957;DHT22;4513;50.054;8.230;2022-09-27T08:44:49;17.60;99.90
8957;DHT22;4513;50.054;8.230;2022-09-27T08:47:24;17.60;99.90
8957;DHT22;4513;50.054;8.230;2022-09-27T08:49:53;17.40;99.90
8957;DHT22;4513;50.054;8.230;2022-09-27T08:52:24;17.70;99.90
8957;DHT22;4513;50.054;8.230;2022-09-27T08:54:55;17.80;99.90
8957;DHT22;4513;50.054;8.230;2022-09-27T08:57:23;17.30;99.90
8957;DHT22;4513;50.054;8.230;2022-09-27T09:00:00;17.20;99.90
8957;DHT22;4513;50.054;8.230;2022-09-27T09:02:27;16.40;99.90
8957;DHT22;4513;50.054;8.230;2022-09-27T09:04:56;16.30;99.90
8957;DHT22;4513;50.054;8.230;2022-09-27T09:07:36;16.00;99.90
8957;DHT22;4513;50.054;8.230;2022-09-27T09:10:22;15.50;99.90
8957;DHT22;4513;50.054;8.230;2022-09-27T09:13:12;14.80;99.90
8957;DHT22;4513;50.054;8.230;2022-09-27T09:15:46;14.40;99.90
8957;DHT22;4513;50.054;8.230;2022-09-27T09:18:32;14.40;99.90
8957;DHT22;4513;50.054;8.230;2022-09-27T09:21:07;14.90;99.90
8957;DHT22;4513;50.054;8.230;2022-09-27T09:23:53;15.40;99.90
8957;DHT22;4513;50.054;8.230;2022-09-27T09:26:30;15.80;99.90
8957;DHT22;4513;50.054;8.230;2022-09-27T09:29:08;15.50;99.90
8957;DHT22;4513;50.054;8.230;2022-09-27T09:31:43;15.40;99.90
8957;DHT22;4513;50.054;8.230;2022-09-27T09:34:18;15.40;99.90
8957;DHT22;4513;50.054;8.230;2022-09-27T09:36:48;15.10;99.90
8957;DHT22;4513;50.054;8.230;2022-09-27T09:39:19;15.30;99.90
8957;DHT22;4513;50.054;8.230;2022-09-27T09:42:01;15.70;99.90
8957;DHT22;4513;50.054;8.230;2022-09-27T09:44:31;16.40;99.90
8957;DHT22;4513;50.054;8.230;2022-09-27T09:47:01;16.80;99.90
8957;DHT22;4513;50.054;8.230;2022-09-27T09:49:32;17.20;99.90
8957;DHT22;4513;50.054;8.230;2022-09-27T09:52:06;17.30;99.90
8957;DHT22;4513;50.054;8.230;2022-09-27T09:54:39;17.10;99.90
8957;DHT22;4513;50.054;8.230;2022-09-27T09:57:14;16.60;99.90
8957;DHT22;4513;50.054;8.230;2022-09-27T09:59:43;15.80;99.90
8957;DHT22;4513;50.054;8.230;2022-09-27T10:02:35;15.30;99.90
8957;DHT22;4513;50.054;8.230;2022-09-27T10:05:04;14.90;99.90
8957;DHT22;4513;50.054;8.230;2022-09-27T10:07:33;14.60;99.90
8957;DHT22;4513;50.054;8.230;2022-09-27T10:10:04;14.20;99.90
8957;DHT22;4513;50.054;8.230;2022-09-27T10:12:34;13.90;99.90
8957;DHT22;4513;50.054;8.230;2022-09-27T10:15:03;13.80;99.90
8957;DHT22;4513;50.054;8.230;2022-09-27T10:17:36;13.90;99.90
8957;DHT22;4513;50.054;8.230;2022-09-27T10:20:05;14.50;99.90
8957;DHT22;4513;50.054;8.230;2022-09-27T10:22:35;15.10;99.90
8957;DHT22;4513;50.054;8.230;2022-09-27T10:25:05;15.40;99.90
8957;DHT22;4513;50.054;8.230;2022-09-27T10:27:38;15.40;99.90
8957;DHT22;4513;50.054;8.230;2022-09-27T10:30:21;15.70;99.90
8957;DHT22;4513;50.054;8.230;2022-09-27T10:32:52;15.80;99.90
8957;DHT22;4513;50.054;8.230;2022-09-27T10:35:32;15.90;99.90
8957;DHT22;4513;50.054;8.230;2022-09-27T10:38:19;15.40;99.90
8957;DHT22;4513;50.054;8.230;2022-09-27T10:40:47;15.20;99.90
8957;DHT22;4513;50.054;8.230;2022-09-27T10:43:24;15.20;99.90
8957;DHT22;4513;50.054;8.230;2022-09-27T10:46:03;15.20;99.90
8957;DHT22;4513;50.054;8.230;2022-09-27T10:48:32;15.60;99.90
8957;DHT22;4513;50.054;8.230;2022-09-27T10:51:01;15.50;99.90
8957;DHT22;4513;50.054;8.230;2022-09-27T10:53:30;15.30;99.90
8957;DHT22;4513;50.054;8.230;2022-09-27T10:55:58;15.20;99.90
8957;DHT22;4513;50.054;8.230;2022-09-27T10:58:26;15.00;99.90
8957;DHT22;4513;50.054;8.230;2022-09-27T11:00:55;14.90;99.90
8957;DHT22;4513;50.054;8.230;2022-09-27T11:03:26;14.80;99.90
8957;DHT22;4513;50.054;8.230;2022-09-27T11:05:55;14.80;99.90
8957;DHT22;4513;50.054;8.230;2022-09-27T11:08:29;14.80;99.90
8957;DHT22;4513;50.054;8.230;2022-09-27T11:11:15;14.80;99.90
8957;DHT22;4513;50.054;8.230;2022-09-27T11:13:57;14.80;99.90
8957;DHT22;4513;50.054;8.230;2022-09-27T11:16:43;14.70;99.90
8957;DHT22;4513;50.054;8.230;2022-09-27T11:19:33;14.60;99.90
8957;DHT22;4513;50.054;8.230;2022-09-27T11:22:11;14.40;99.90
8957;DHT22;4513;50.054;8.230;2022-09-27T11:24:53;14.50;99.90
8957;DHT22;4513;50.054;8.230;2022-09-27T11:27:34;14.40;99.90
8957;DHT22;4513;50.054;8.230;2022-09-27T11:30:07;14.50;99.90
8957;DHT22;4513;50.054;8.230;2022-09-27T11:32:56;14.50;99.90
8957;DHT22;4513;50.054;8.230;2022-09-27T11:35:32;14.60;99.90
8957;DHT22;4513;50.054;8.230;2022-09-27T11:38:16;14.50;99.90
8957;DHT22;4513;50.054;8.230;2022-09-27T11:40:55;14.60;99.90
8957;DHT22;4513;50.054;8.230;2022-09-27T11:43:37;14.70;99.90
8957;DHT22;4513;50.054;8.230;2022-09-27T11:46:17;14.70;99.90
8957;DHT22;4513;50.054;8.230;2022-09-27T11:49:00;14.50;99.90
8957;DHT22;4513;50.054;8.230;2022-09-27T11:51:46;14.40;99.90
8957;DHT22;4513;50.054;8.230;2022-09-27T11:54:30;14.30;99.90
8957;DHT22;4513;50.054;8.230;2022-09-27T11:57:05;14.50;99.90
8957;DHT22;4513;50.054;8.230;2022-09-27T11:59:56;14.40;99.90
8957;DHT22;4513;50.054;8.230;2022-09-27T12:03:02;14.30;99.90
8957;DHT22;4513;50.054;8.230;2022-09-27T12:05:41;14.30;99.90
8957;DHT22;4513;50.054;8.230;2022-09-27T12:08:32;14.30;99.90
8957;DHT22;4513;50.054;8.230;2022-09-27T12:11:15;14.20;99.90
8957;DHT22;4513;50.054;8.230;2022-09-27T12:13:47;14.20;99.90
8957;DHT22;4513;50.054;8.230;2022-09-27T12:16:16;14.20;99.90
8957;DHT22;4513;50.054;8.230;2022-09-27T12:18:44;14.30;99.90
8957;DHT22;4513;50.054;8.230;2022-09-27T12:21:12;14.30;99.90
8957;DHT22;4513;50.054;8.230;2022-09-27T12:23:43;14.30;99.90
8957;DHT22;4513;50.054;8.230;2022-09-27T12:26:16;14.30;99.90
8957;DHT22;4513;50.054;8.230;2022-09-27T12:28:47;14.20;99.90
8957;DHT22;4513;50.054;8.230;2022-09-27T12:31:18;14.20;99.90
8957;DHT22;4513;50.054;8.230;2022-09-27T12:33:54;14.30;99.90
8957;DHT22;4513;50.054;8.230;2022-09-27T12:36:30;14.30;99.90
8957;DHT22;4513;50.054;8.230;2022-09-27T12:39:03;14.40;99.90
8957;DHT22;4513;50.054;8.230;2022-09-27T12:41:38;14.40;99.90
8957;DHT22;4513;50.054;8.230;2022-09-27T12:44:08;14.50;99.90
8957;DHT22;4513;50.054;8.230;2022-09-27T12:46:46;14.60;99.90
8957;DHT22;4513;50.054;8.230;2022-09-27T12:49:25;14.70;99.90
8957;DHT22;4513;50.054;8.230;2022-09-27T12:51:58;14.70;99.90
8957;DHT22;4513;50.054;8.230;2022-09-27T12:57:44;14.50;99.90
8957;DHT22;4513;50.054;8.230;2022-09-27T13:00:17;14.40;99.90
8957;DHT22;4513;50.054;8.230;2022-09-27T13:03:17;14.20;99.90
8957;DHT22;4513;50.054;8.230;2022-09-27T13:06:15;14.20;99.90
8957;DHT22;4513;50.054;8.230;2022-09-27T13:09:14;14.10;99.90
8957;DHT22;4513;50.054;8.230;2022-09-27T13:11:50;14.10;99.90
8957;DHT22;4513;50.054;8.230;2022-09-27T13:14:23;14.20;99.90
8957;DHT22;4513;50.054;8.230;2022-09-27T13:16:51;14.00;99.90
8957;DHT22;4513;50.054;8.230;2022-09-27T13:19:38;13.80;99.90
8957;DHT22;4513;50.054;8.230;2022-09-27T13:22:08;13.70;99.90
8957;DHT22;4513;50.054;8.230;2022-09-27T13:24:43;13.60;99.90
8957;DHT22;4513;50.054;8.230;2022-09-27T13:27:37;13.60;99.90
8957;DHT22;4513;50.054;8.230;2022-09-27T13:33:41;13.70;99.90
8957;DHT22;4513;50.054;8.230;2022-09-27T13:36:29;13.50;99.90
8957;DHT22;4513;50.054;8.230;2022-09-27T13:39:18;13.50;99.90
8957;DHT22;4513;50.054;8.230;2022-09-27T13:42:20;13.50;99.90
8957;DHT22;4513;50.054;8.230;2022-09-27T13:45:08;13.70;99.90
8957;DHT22;4513;50.054;8.230;2022-09-27T13:47:43;13.80;99.90
8957;DHT22;4513;50.054;8.230;2022-09-27T13:50:19;13.90;99.90
8957;DHT22;4513;50.054;8.230;2022-09-27T13:52:57;14.10;99.90
8957;DHT22;4513;50.054;8.230;2022-09-27T13:55:44;14.30;99.90
8957;DHT22;4513;50.054;8.230;2022-09-27T13:58:33;14.20;99.90
8957;DHT22;4513;50.054;8.230;2022-09-27T14:01:04;14.20;99.90
8957;DHT22;4513;50.054;8.230;2022-09-27T14:04:00;14.20;99.90
8957;DHT22;4513;50.054;8.230;2022-09-27T14:06:33;14.20;99.90
8957;DHT22;4513;50.054;8.230;2022-09-27T14:09:03;14.30;99.90
8957;DHT22;4513;50.054;8.230;2022-09-27T14:11:33;14.40;99.90
8957;DHT22;4513;50.054;8.230;2022-09-27T14:14:03;14.30;99.90
8957;DHT22;4513;50.054;8.230;2022-09-27T14:16:33;14.30;99.90
8957;DHT22;4513;50.054;8.230;2022-09-27T14:19:01;14.30;99.90
8957;DHT22;4513;50.054;8.230;2022-09-27T14:21:32;14.30;99.90
8957;DHT22;4513;50.054;8.230;2022-09-27T14:24:20;14.10;99.90
8957;DHT22;4513;50.054;8.230;2022-09-27T14:26:48;14.10;99.90
8957;DHT22;4513;50.054;8.230;2022-09-27T14:29:17;14.10;99.90
8957;DHT22;4513;50.054;8.230;2022-09-27T14:31:43;14.10;99.90
8957;DHT22;4513;50.054;8.230;2022-09-27T14:34:12;13.90;99.90
8957;DHT22;4513;50.054;8.230;2022-09-27T14:36:42;13.80;99.90
8957;DHT22;4513;50.054;8.230;2022-09-27T14:39:29;13.80;99.90
8957;DHT22;4513;50.054;8.230;2022-09-27T14:41:57;13.70;99.90
8957;DHT22;4513;50.054;8.230;2022-09-27T14:44:24;13.60;99.90
8957;DHT22;4513;50.054;8.230;2022-09-27T14:47:07;13.50;99.90
8957;DHT22;4513;50.054;8.230;2022-09-27T14:49:34;13.40;99.90
8957;DHT22;4513;50.054;8.230;2022-09-27T14:52:15;13.40;99.90
8957;DHT22;4513;50.054;8.230;2022-09-27T14:54:43;13.40;99.90
8957;DHT22;4513;50.054;8.230;2022-09-27T14:57:14;13.40;99.90
8957;DHT22;4513;50.054;8.230;2022-09-27T14:59:42;13.20;99.90
8957;DHT22;4513;50.054;8.230;2022-09-27T15:02:17;13.00;99.90
8957;DHT22;4513;50.054;8.230;2022-09-27T15:04:47;12.90;99.90
8957;DHT22;4513;50.054;8.230;2022-09-27T15:07:17;12.70;99.90
8957;DHT22;4513;50.054;8.230;2022-09-27T15:09:47;12.70;99.90
8957;DHT22;4513;50.054;8.230;2022-09-27T15:12:21;12.60;99.90
8957;DHT22;4513;50.054;8.230;2022-09-27T15:14:50;12.70;99.90
8957;DHT22;4513;50.054;8.230;2022-09-27T15:17:19;12.90;99.90
8957;DHT22;4513;50.054;8.230;2022-09-27T15:19:59;13.00;99.90
8957;DHT22;4513;50.054;8.230;2022-09-27T15:22:40;13.10;99.90
8957;DHT22;4513;50.054;8.230;2022-09-27T15:25:18;13.20;99.90
8957;DHT22;4513;50.054;8.230;2022-09-27T15:27:53;13.10;99.90
8957;DHT22;4513;50.054;8.230;2022-09-27T15:30:24;13.10;99.90
8957;DHT22;4513;50.054;8.230;2022-09-27T15:32:53;13.00;99.90
8957;DHT22;4513;50.054;8.230;2022-09-27T15:35:24;12.90;99.90
8957;DHT22;4513;50.054;8.230;2022-09-27T15:38:09;12.80;99.90
8957;DHT22;4513;50.054;8.230;2022-09-27T15:41:05;12.70;99.90
8957;DHT22;4513;50.054;8.230;2022-09-27T15:43:35;12.70;99.90
8957;DHT22;4513;50.054;8.230;2022-09-27T15:46:24;12.60;99.90
8957;DHT22;4513;50.054;8.230;2022-09-27T15:51:59;12.40;99.90
8957;DHT22;4513;50.054;8.230;2022-09-27T15:54:30;12.40;99.90
8957;DHT22;4513;50.054;8.230;2022-09-27T15:57:01;12.60;99.90
8957;DHT22;4513;50.054;8.230;2022-09-27T15:59:30;12.50;99.90
8957;DHT22;4513;50.054;8.230;2022-09-27T16:02:00;12.60;99.90
8957;DHT22;4513;50.054;8.230;2022-09-27T16:04:28;12.40;99.90
8957;DHT22;4513;50.054;8.230;2022-09-27T16:06:57;12.40;99.90
8957;DHT22;4513;50.054;8.230;2022-09-27T16:09:25;12.40;99.90
8957;DHT22;4513;50.054;8.230;2022-09-27T16:11:53;12.50;99.90
8957;DHT22;4513;50.054;8.230;2022-09-27T16:14:20;12.60;99.90
8957;DHT22;4513;50.054;8.230;2022-09-27T16:16:49;12.50;99.90
8957;DHT22;4513;50.054;8.230;2022-09-27T16:19:16;12.40;99.90
8957;DHT22;4513;50.054;8.230;2022-09-27T16:21:43;12.30;99.90
8957;DHT22;4513;50.054;8.230;2022-09-27T16:24:12;12.00;99.90
8957;DHT22;4513;50.054;8.230;2022-09-27T16:26:38;11.80;99.90
8957;DHT22;4513;50.054;8.230;2022-09-27T16:29:11;11.70;99.90
8957;DHT22;4513;50.054;8.230;2022-09-27T16:31:38;11.70;99.90
8957;DHT22;4513;50.054;8.230;2022-09-27T16:34:06;11.80;99.90
8957;DHT22;4513;50.054;8.230;2022-09-27T16:36:33;11.60;99.90
8957;DHT22;4513;50.054;8.230;2022-09-27T16:39:00;11.50;99.90
8957;DHT22;4513;50.054;8.230;2022-09-27T16:41:29;11.50;99.90
8957;DHT22;4513;50.054;8.230;2022-09-27T16:43:56;11.50;99.90